CheckWX is a tool to help pilots better visualize weather data.  It is not intended as a substitute for an official pre-flight weather briefing.

12:21:44 UTC

KCOE METAR
Coeur D'alene - Pappy Boyington Field Airport
Coeur D'alene, Idaho, USA
Current

26 mins ago

KCOE 181156Z AUTO 04008KT 10SM CLR M14/M17 A3026 RMK AO2 SLP309 T11441172 11094 21144 51005 FZRANO
Observed
Feb-18 @ 11:56 UTC
Wind
  • 040° at 8 KTS
Visibility
10 SM
Flight Rules
VFR
Cloud Levels
  • Clear skies
Temperature
-14°C / 7°F
Dewpoint
-17°C / 1°F
Humidity
78%
Altimeter
30.26" Hg
Pressure
1030.9 hPa
Previous

1 hour ago

KCOE 181056Z AUTO 02008KT 10SM CLR M12/M17 A3026 RMK AO2 SLP306 T11221167 FZRANO
Observed
Feb-18 @ 10:56 UTC
Wind
  • 020° at 8 KTS
Visibility
10 SM
Flight Rules
VFR
Cloud Levels
  • Clear skies
Temperature
-12°C / 10°F
Dewpoint
-17°C / 1°F
Humidity
67%
Altimeter
30.26" Hg
Pressure
1030.6 hPa
Previous

2 hours ago

KCOE 180956Z AUTO 03009KT 10SM CLR M13/M16 A3026 RMK AO2 SLP305 T11281161 FZRANO
Observed
Feb-18 @ 09:56 UTC
Wind
  • 030° at 9 KTS
Visibility
10 SM
Flight Rules
VFR
Cloud Levels
  • Clear skies
Temperature
-13°C / 9°F
Dewpoint
-16°C / 3°F
Humidity
78%
Altimeter
30.26" Hg
Pressure
1030.5 hPa